CheckWX is a tool to help pilots better visualize weather data.  It is not intended as a substitute for an official pre-flight weather briefing.

06:10:49 UTC

KSMF TAF
Sacramento International Airport
Sacramento, California, USA
KSMF 260520Z 2606/2706 18009KT P6SM FEW250 FM262000 20014G20KT P6SM SCT250 FM270500 19009KT P6SM SKC

Jun-26@
06:00 UTC

Jun-26 @ 06:00 UTC

Jun-26@
20:00 UTC

Jun-26 @ 20:00 UTC

KSMF 260520Z 2606/2706 18009KT P6SM FEW250
Wind
  • 180° at 9 KTS
Cloud Levels
  • Few at 25,000' AGL

Jun-26@
20:00 UTC

Jun-26 @ 20:00 UTC

Jun-27@
05:00 UTC

Jun-27 @ 05:00 UTC

FM262000 20014G20KT P6SM SCT250

From

From Standard forecast or significant change

Wind
  • 200° at 14 KTS
  • {Gusting to 20 KTS
Cloud Levels
  • Scattered at 25,000' AGL

Jun-27@
05:00 UTC

Jun-27 @ 05:00 UTC

Jun-27@
06:00 UTC

Jun-27 @ 06:00 UTC

FM270500 19009KT P6SM SKC

From

From Standard forecast or significant change

Wind
  • 190° at 9 KTS
Cloud Levels
  • Clear skies